sensor_id;sensor_type;location;lat;lon;timestamp;P1;durP1;ratioP1;P2;durP2;ratioP2
64795;SDS011;51229;51.980;6.722;2022-09-24T00:01:10;15.68;;;13.05;;
64795;SDS011;51229;51.980;6.722;2022-09-24T00:03:40;14.52;;;11.00;;
64795;SDS011;51229;51.980;6.722;2022-09-24T00:06:10;16.88;;;12.77;;
64795;SDS011;51229;51.980;6.722;2022-09-24T00:08:38;16.67;;;12.90;;
64795;SDS011;51229;51.980;6.722;2022-09-24T00:11:05;17.08;;;13.13;;
64795;SDS011;51229;51.980;6.722;2022-09-24T00:13:32;17.27;;;12.70;;
64795;SDS011;51229;51.980;6.722;2022-09-24T00:16:04;19.95;;;12.68;;
64795;SDS011;51229;51.980;6.722;2022-09-24T00:18:32;15.50;;;11.60;;
64795;SDS011;51229;51.980;6.722;2022-09-24T00:20:59;15.43;;;11.02;;
64795;SDS011;51229;51.980;6.722;2022-09-24T00:23:25;13.52;;;9.70;;
64795;SDS011;51229;51.980;6.722;2022-09-24T00:25:51;13.75;;;11.10;;
64795;SDS011;51229;51.980;6.722;2022-09-24T00:28:36;14.43;;;10.43;;
64795;SDS011;51229;51.980;6.722;2022-09-24T00:31:03;14.02;;;9.75;;
64795;SDS011;51229;51.980;6.722;2022-09-24T00:33:31;14.15;;;10.40;;
64795;SDS011;51229;51.980;6.722;2022-09-24T00:36:02;14.45;;;10.30;;
64795;SDS011;51229;51.980;6.722;2022-09-24T00:38:30;15.77;;;10.85;;
64795;SDS011;51229;51.980;6.722;2022-09-24T00:40:56;15.93;;;9.98;;
64795;SDS011;51229;51.980;6.722;2022-09-24T00:43:31;13.90;;;9.48;;
64795;SDS011;51229;51.980;6.722;2022-09-24T00:46:12;13.57;;;9.65;;
64795;SDS011;51229;51.980;6.722;2022-09-24T00:48:42;14.10;;;9.52;;
64795;SDS011;51229;51.980;6.722;2022-09-24T00:51:10;13.55;;;9.45;;
64795;SDS011;51229;51.980;6.722;2022-09-24T00:53:39;15.18;;;10.20;;
64795;SDS011;51229;51.980;6.722;2022-09-24T00:56:09;13.18;;;9.13;;
64795;SDS011;51229;51.980;6.722;2022-09-24T00:58:39;12.48;;;7.65;;
64795;SDS011;51229;51.980;6.722;2022-09-24T01:01:12;14.93;;;8.95;;
64795;SDS011;51229;51.980;6.722;2022-09-24T01:03:39;11.25;;;8.25;;
64795;SDS011;51229;51.980;6.722;2022-09-24T01:06:09;12.60;;;8.43;;
64795;SDS011;51229;51.980;6.722;2022-09-24T01:08:36;11.45;;;7.55;;
64795;SDS011;51229;51.980;6.722;2022-09-24T01:19:33;12.98;;;9.63;;
64795;SDS011;51229;51.980;6.722;2022-09-24T01:22:03;14.07;;;9.35;;
64795;SDS011;51229;51.980;6.722;2022-09-24T01:30:27;13.27;;;8.40;;
64795;SDS011;51229;51.980;6.722;2022-09-24T01:32:59;15.13;;;8.50;;
64795;SDS011;51229;51.980;6.722;2022-09-24T01:35:28;13.32;;;8.60;;
64795;SDS011;51229;51.980;6.722;2022-09-24T01:40:39;12.82;;;8.00;;
64795;SDS011;51229;51.980;6.722;2022-09-24T01:43:07;13.63;;;7.72;;
64795;SDS011;51229;51.980;6.722;2022-09-24T01:45:37;14.20;;;8.57;;
64795;SDS011;51229;51.980;6.722;2022-09-24T01:48:04;10.77;;;7.15;;
64795;SDS011;51229;51.980;6.722;2022-09-24T01:50:32;14.00;;;8.68;;
64795;SDS011;51229;51.980;6.722;2022-09-24T01:53:14;13.48;;;8.43;;
64795;SDS011;51229;51.980;6.722;2022-09-24T01:55:45;12.93;;;8.40;;
64795;SDS011;51229;51.980;6.722;2022-09-24T01:58:15;13.10;;;8.68;;
64795;SDS011;51229;51.980;6.722;2022-09-24T02:00:46;10.95;;;7.72;;
64795;SDS011;51229;51.980;6.722;2022-09-24T02:03:14;12.63;;;7.57;;
64795;SDS011;51229;51.980;6.722;2022-09-24T02:05:44;11.38;;;7.45;;
64795;SDS011;51229;51.980;6.722;2022-09-24T02:08:27;10.85;;;7.32;;
64795;SDS011;51229;51.980;6.722;2022-09-24T02:11:12;14.40;;;8.85;;
64795;SDS011;51229;51.980;6.722;2022-09-24T02:13:45;11.00;;;7.07;;
64795;SDS011;51229;51.980;6.722;2022-09-24T02:16:19;8.73;;;5.95;;
64795;SDS011;51229;51.980;6.722;2022-09-24T02:18:50;13.32;;;8.45;;
64795;SDS011;51229;51.980;6.722;2022-09-24T02:21:19;12.25;;;7.60;;
64795;SDS011;51229;51.980;6.722;2022-09-24T02:23:50;14.35;;;10.23;;
64795;SDS011;51229;51.980;6.722;2022-09-24T02:26:21;15.85;;;9.27;;
64795;SDS011;51229;51.980;6.722;2022-09-24T02:28:47;12.90;;;8.80;;
64795;SDS011;51229;51.980;6.722;2022-09-24T02:31:14;12.20;;;8.18;;
64795;SDS011;51229;51.980;6.722;2022-09-24T02:33:46;14.63;;;9.67;;
64795;SDS011;51229;51.980;6.722;2022-09-24T02:36:33;11.15;;;7.50;;
64795;SDS011;51229;51.980;6.722;2022-09-24T02:39:00;15.13;;;9.65;;
64795;SDS011;51229;51.980;6.722;2022-09-24T02:41:27;15.50;;;9.60;;
64795;SDS011;51229;51.980;6.722;2022-09-24T02:43:54;13.07;;;8.32;;
64795;SDS011;51229;51.980;6.722;2022-09-24T02:46:20;9.93;;;6.65;;
64795;SDS011;51229;51.980;6.722;2022-09-24T02:48:46;13.82;;;9.32;;
64795;SDS011;51229;51.980;6.722;2022-09-24T02:51:12;13.75;;;9.15;;
64795;SDS011;51229;51.980;6.722;2022-09-24T02:53:37;15.85;;;10.18;;
64795;SDS011;51229;51.980;6.722;2022-09-24T02:56:03;15.27;;;9.68;;
64795;SDS011;51229;51.980;6.722;2022-09-24T02:58:30;15.98;;;10.40;;
64795;SDS011;51229;51.980;6.722;2022-09-24T03:00:55;15.73;;;10.35;;
64795;SDS011;51229;51.980;6.722;2022-09-24T03:03:23;14.52;;;9.25;;
64795;SDS011;51229;51.980;6.722;2022-09-24T03:05:49;16.05;;;9.70;;
64795;SDS011;51229;51.980;6.722;2022-09-24T03:08:17;14.13;;;8.95;;
64795;SDS011;51229;51.980;6.722;2022-09-24T03:10:44;14.07;;;8.80;;
64795;SDS011;51229;51.980;6.722;2022-09-24T03:13:11;16.83;;;10.77;;
64795;SDS011;51229;51.980;6.722;2022-09-24T03:15:37;15.05;;;9.88;;
64795;SDS011;51229;51.980;6.722;2022-09-24T03:18:03;17.52;;;11.38;;
64795;SDS011;51229;51.980;6.722;2022-09-24T03:20:29;17.92;;;11.63;;
64795;SDS011;51229;51.980;6.722;2022-09-24T03:22:55;16.10;;;10.48;;
64795;SDS011;51229;51.980;6.722;2022-09-24T03:25:21;16.25;;;10.27;;
64795;SDS011;51229;51.980;6.722;2022-09-24T03:27:47;17.42;;;11.82;;
64795;SDS011;51229;51.980;6.722;2022-09-24T03:30:13;16.63;;;10.95;;
64795;SDS011;51229;51.980;6.722;2022-09-24T03:32:57;10.60;;;6.78;;
64795;SDS011;51229;51.980;6.722;2022-09-24T03:35:24;18.27;;;11.88;;
64795;SDS011;51229;51.980;6.722;2022-09-24T03:37:50;19.48;;;12.63;;
64795;SDS011;51229;51.980;6.722;2022-09-24T03:40:16;19.98;;;12.38;;
64795;SDS011;51229;51.980;6.722;2022-09-24T03:42:41;15.05;;;9.93;;
64795;SDS011;51229;51.980;6.722;2022-09-24T03:45:08;17.77;;;10.65;;
64795;SDS011;51229;51.980;6.722;2022-09-24T03:47:34;16.77;;;11.52;;
64795;SDS011;51229;51.980;6.722;2022-09-24T03:50:00;18.67;;;12.27;;
64795;SDS011;51229;51.980;6.722;2022-09-24T03:52:26;17.63;;;11.73;;
64795;SDS011;51229;51.980;6.722;2022-09-24T03:54:53;17.13;;;10.82;;
64795;SDS011;51229;51.980;6.722;2022-09-24T03:57:18;15.98;;;11.02;;
64795;SDS011;51229;51.980;6.722;2022-09-24T03:59:44;18.38;;;11.77;;
64795;SDS011;51229;51.980;6.722;2022-09-24T04:02:11;16.95;;;11.27;;
64795;SDS011;51229;51.980;6.722;2022-09-24T04:04:37;17.77;;;11.27;;
64795;SDS011;51229;51.980;6.722;2022-09-24T04:07:03;16.08;;;9.75;;
64795;SDS011;51229;51.980;6.722;2022-09-24T04:09:29;14.95;;;10.02;;
64795;SDS011;51229;51.980;6.722;2022-09-24T04:11:55;17.42;;;11.70;;
64795;SDS011;51229;51.980;6.722;2022-09-24T04:14:21;19.23;;;12.45;;
64795;SDS011;51229;51.980;6.722;2022-09-24T04:16:47;14.75;;;10.20;;
64795;SDS011;51229;51.980;6.722;2022-09-24T04:19:13;15.82;;;10.65;;
64795;SDS011;51229;51.980;6.722;2022-09-24T04:21:46;15.38;;;9.98;;
64795;SDS011;51229;51.980;6.722;2022-09-24T04:24:12;19.60;;;13.30;;
64795;SDS011;51229;51.980;6.722;2022-09-24T04:26:38;18.00;;;11.57;;
64795;SDS011;51229;51.980;6.722;2022-09-24T04:29:04;19.50;;;12.43;;
64795;SDS011;51229;51.980;6.722;2022-09-24T04:31:30;15.50;;;10.23;;
64795;SDS011;51229;51.980;6.722;2022-09-24T04:33:59;19.33;;;12.23;;
64795;SDS011;51229;51.980;6.722;2022-09-24T04:36:25;18.70;;;11.90;;
64795;SDS011;51229;51.980;6.722;2022-09-24T04:38:51;18.67;;;12.40;;
64795;SDS011;51229;51.980;6.722;2022-09-24T04:41:17;19.50;;;13.13;;
64795;SDS011;51229;51.980;6.722;2022-09-24T04:43:43;18.73;;;13.15;;
64795;SDS011;51229;51.980;6.722;2022-09-24T04:46:13;19.17;;;12.32;;
64795;SDS011;51229;51.980;6.722;2022-09-24T04:48:39;16.05;;;10.63;;
64795;SDS011;51229;51.980;6.722;2022-09-24T04:51:05;16.90;;;11.10;;
64795;SDS011;51229;51.980;6.722;2022-09-24T04:53:33;15.00;;;9.93;;
64795;SDS011;51229;51.980;6.722;2022-09-24T04:56:00;18.92;;;11.43;;
64795;SDS011;51229;51.980;6.722;2022-09-24T04:58:27;20.42;;;12.80;;
64795;SDS011;51229;51.980;6.722;2022-09-24T05:00:53;19.23;;;13.02;;
64795;SDS011;51229;51.980;6.722;2022-09-24T05:03:19;17.42;;;11.82;;
64795;SDS011;51229;51.980;6.722;2022-09-24T05:05:45;21.45;;;14.00;;
64795;SDS011;51229;51.980;6.722;2022-09-24T05:08:11;19.52;;;12.27;;
64795;SDS011;51229;51.980;6.722;2022-09-24T05:10:37;21.00;;;13.50;;
64795;SDS011;51229;51.980;6.722;2022-09-24T05:13:05;20.73;;;14.38;;
64795;SDS011;51229;51.980;6.722;2022-09-24T05:15:30;21.95;;;14.60;;
64795;SDS011;51229;51.980;6.722;2022-09-24T05:17:57;20.13;;;12.52;;
64795;SDS011;51229;51.980;6.722;2022-09-24T05:20:22;18.80;;;12.75;;
64795;SDS011;51229;51.980;6.722;2022-09-24T05:22:49;13.52;;;9.30;;
64795;SDS011;51229;51.980;6.722;2022-09-24T05:25:15;22.55;;;14.48;;
64795;SDS011;51229;51.980;6.722;2022-09-24T05:27:47;22.83;;;13.77;;
64795;SDS011;51229;51.980;6.722;2022-09-24T05:30:17;23.23;;;14.90;;
64795;SDS011;51229;51.980;6.722;2022-09-24T05:32:45;21.83;;;14.63;;
64795;SDS011;51229;51.980;6.722;2022-09-24T05:35:13;19.77;;;13.13;;
64795;SDS011;51229;51.980;6.722;2022-09-24T05:37:39;20.45;;;12.40;;
64795;SDS011;51229;51.980;6.722;2022-09-24T05:40:05;20.20;;;13.73;;
64795;SDS011;51229;51.980;6.722;2022-09-24T05:42:50;19.35;;;12.32;;
64795;SDS011;51229;51.980;6.722;2022-09-24T05:45:24;20.23;;;12.80;;
64795;SDS011;51229;51.980;6.722;2022-09-24T05:47:50;24.75;;;16.10;;
64795;SDS011;51229;51.980;6.722;2022-09-24T05:50:16;22.63;;;14.65;;
64795;SDS011;51229;51.980;6.722;2022-09-24T05:52:43;26.40;;;15.85;;
64795;SDS011;51229;51.980;6.722;2022-09-24T05:55:09;21.77;;;14.23;;
64795;SDS011;51229;51.980;6.722;2022-09-24T05:57:36;23.88;;;14.80;;
64795;SDS011;51229;51.980;6.722;2022-09-24T06:00:02;19.23;;;12.70;;
64795;SDS011;51229;51.980;6.722;2022-09-24T06:02:37;21.42;;;13.90;;
64795;SDS011;51229;51.980;6.722;2022-09-24T06:05:03;16.08;;;10.45;;
64795;SDS011;51229;51.980;6.722;2022-09-24T06:07:29;25.92;;;13.57;;
64795;SDS011;51229;51.980;6.722;2022-09-24T06:09:55;18.73;;;12.75;;
64795;SDS011;51229;51.980;6.722;2022-09-24T06:12:23;23.38;;;14.75;;
64795;SDS011;51229;51.980;6.722;2022-09-24T06:14:49;20.50;;;13.52;;
64795;SDS011;51229;51.980;6.722;2022-09-24T06:17:17;25.58;;;16.88;;
64795;SDS011;51229;51.980;6.722;2022-09-24T06:19:43;22.52;;;15.02;;
64795;SDS011;51229;51.980;6.722;2022-09-24T06:22:11;27.65;;;17.73;;
64795;SDS011;51229;51.980;6.722;2022-09-24T06:24:37;25.45;;;16.80;;
64795;SDS011;51229;51.980;6.722;2022-09-24T06:27:04;27.10;;;16.30;;
64795;SDS011;51229;51.980;6.722;2022-09-24T06:29:30;22.73;;;14.32;;
64795;SDS011;51229;51.980;6.722;2022-09-24T06:31:57;22.92;;;15.63;;
64795;SDS011;51229;51.980;6.722;2022-09-24T06:34:27;20.55;;;13.80;;
64795;SDS011;51229;51.980;6.722;2022-09-24T06:36:53;27.40;;;17.77;;
64795;SDS011;51229;51.980;6.722;2022-09-24T06:39:24;29.23;;;18.60;;
64795;SDS011;51229;51.980;6.722;2022-09-24T06:41:50;26.50;;;17.52;;
64795;SDS011;51229;51.980;6.722;2022-09-24T06:44:17;28.52;;;18.70;;
64795;SDS011;51229;51.980;6.722;2022-09-24T06:46:44;28.00;;;17.23;;
64795;SDS011;51229;51.980;6.722;2022-09-24T06:49:10;27.42;;;17.13;;
64795;SDS011;51229;51.980;6.722;2022-09-24T06:51:36;26.35;;;17.15;;
64795;SDS011;51229;51.980;6.722;2022-09-24T06:54:03;24.67;;;16.35;;
64795;SDS011;51229;51.980;6.722;2022-09-24T06:56:30;26.00;;;16.85;;
64795;SDS011;51229;51.980;6.722;2022-09-24T06:58:57;25.77;;;16.65;;
64795;SDS011;51229;51.980;6.722;2022-09-24T07:01:23;30.30;;;17.83;;
64795;SDS011;51229;51.980;6.722;2022-09-24T07:03:49;23.90;;;16.38;;
64795;SDS011;51229;51.980;6.722;2022-09-24T07:06:14;25.48;;;15.98;;
64795;SDS011;51229;51.980;6.722;2022-09-24T07:08:40;28.48;;;17.52;;
64795;SDS011;51229;51.980;6.722;2022-09-24T07:11:07;27.20;;;17.77;;
64795;SDS011;51229;51.980;6.722;2022-09-24T07:13:33;31.85;;;19.42;;
64795;SDS011;51229;51.980;6.722;2022-09-24T07:15:59;28.88;;;17.88;;
64795;SDS011;51229;51.980;6.722;2022-09-24T07:18:26;29.55;;;18.40;;
64795;SDS011;51229;51.980;6.722;2022-09-24T07:20:52;29.42;;;19.15;;
64795;SDS011;51229;51.980;6.722;2022-09-24T07:23:19;30.40;;;19.30;;
64795;SDS011;51229;51.980;6.722;2022-09-24T07:25:45;31.83;;;20.08;;
64795;SDS011;51229;51.980;6.722;2022-09-24T07:28:12;36.17;;;18.75;;
64795;SDS011;51229;51.980;6.722;2022-09-24T07:30:40;30.45;;;18.83;;
64795;SDS011;51229;51.980;6.722;2022-09-24T07:33:06;27.55;;;17.95;;
64795;SDS011;51229;51.980;6.722;2022-09-24T07:35:32;29.95;;;18.55;;
64795;SDS011;51229;51.980;6.722;2022-09-24T07:38:02;30.67;;;18.00;;
64795;SDS011;51229;51.980;6.722;2022-09-24T07:40:30;32.90;;;17.42;;
64795;SDS011;51229;51.980;6.722;2022-09-24T07:42:56;25.23;;;17.00;;
64795;SDS011;51229;51.980;6.722;2022-09-24T07:45:23;27.63;;;18.30;;
64795;SDS011;51229;51.980;6.722;2022-09-24T07:47:59;25.90;;;17.08;;
64795;SDS011;51229;51.980;6.722;2022-09-24T07:50:26;29.45;;;18.02;;
64795;SDS011;51229;51.980;6.722;2022-09-24T07:52:53;26.17;;;17.70;;
64795;SDS011;51229;51.980;6.722;2022-09-24T07:55:19;28.33;;;17.77;;
64795;SDS011;51229;51.980;6.722;2022-09-24T07:57:46;27.67;;;18.23;;
64795;SDS011;51229;51.980;6.722;2022-09-24T08:00:13;28.10;;;17.30;;
64795;SDS011;51229;51.980;6.722;2022-09-24T08:02:41;26.33;;;16.33;;
64795;SDS011;51229;51.980;6.722;2022-09-24T08:05:08;25.80;;;15.07;;
64795;SDS011;51229;51.980;6.722;2022-09-24T08:07:34;23.83;;;16.23;;
64795;SDS011;51229;51.980;6.722;2022-09-24T08:10:00;26.05;;;15.73;;
64795;SDS011;51229;51.980;6.722;2022-09-24T08:12:26;24.05;;;15.13;;
64795;SDS011;51229;51.980;6.722;2022-09-24T08:14:52;23.38;;;14.90;;
64795;SDS011;51229;51.980;6.722;2022-09-24T08:17:18;21.98;;;13.93;;
64795;SDS011;51229;51.980;6.722;2022-09-24T08:19:44;20.17;;;13.60;;
64795;SDS011;51229;51.980;6.722;2022-09-24T08:22:13;20.50;;;13.70;;
64795;SDS011;51229;51.980;6.722;2022-09-24T08:24:39;20.17;;;13.05;;
64795;SDS011;51229;51.980;6.722;2022-09-24T08:27:06;21.40;;;13.68;;
64795;SDS011;51229;51.980;6.722;2022-09-24T08:29:32;20.42;;;13.38;;
64795;SDS011;51229;51.980;6.722;2022-09-24T08:31:59;21.73;;;13.65;;
64795;SDS011;51229;51.980;6.722;2022-09-24T08:34:25;20.80;;;14.13;;
64795;SDS011;51229;51.980;6.722;2022-09-24T08:36:51;21.13;;;13.80;;
64795;SDS011;51229;51.980;6.722;2022-09-24T08:39:16;17.55;;;12.27;;
64795;SDS011;51229;51.980;6.722;2022-09-24T08:41:49;18.92;;;12.10;;
64795;SDS011;51229;51.980;6.722;2022-09-24T08:50:13;58.25;;;20.35;;
64795;SDS011;51229;51.980;6.722;2022-09-24T08:53:02;28.90;;;13.43;;
64795;SDS011;51229;51.980;6.722;2022-09-24T08:55:42;68.82;;;23.20;;
64795;SDS011;51229;51.980;6.722;2022-09-24T08:58:35;28.27;;;12.43;;
64795;SDS011;51229;51.980;6.722;2022-09-24T09:03:43;80.32;;;27.15;;
64795;SDS011;51229;51.980;6.722;2022-09-24T09:08:57;110.95;;;35.80;;
64795;SDS011;51229;51.980;6.722;2022-09-24T09:11:35;197.55;;;60.67;;
64795;SDS011;51229;51.980;6.722;2022-09-24T09:14:06;75.25;;;27.67;;
64795;SDS011;51229;51.980;6.722;2022-09-24T09:16:43;99.78;;;30.80;;
64795;SDS011;51229;51.980;6.722;2022-09-24T09:19:14;230.15;;;67.43;;
64795;SDS011;51229;51.980;6.722;2022-09-24T09:21:42;39.45;;;19.27;;
64795;SDS011;51229;51.980;6.722;2022-09-24T09:24:17;123.68;;;40.47;;
64795;SDS011;51229;51.980;6.722;2022-09-24T09:26:48;29.75;;;15.23;;
64795;SDS011;51229;51.980;6.722;2022-09-24T09:29:18;20.10;;;13.63;;
64795;SDS011;51229;51.980;6.722;2022-09-24T09:32:01;21.10;;;14.00;;
64795;SDS011;51229;51.980;6.722;2022-09-24T09:37:35;23.67;;;13.38;;
64795;SDS011;51229;51.980;6.722;2022-09-24T09:43:00;18.58;;;12.02;;
64795;SDS011;51229;51.980;6.722;2022-09-24T09:48:15;15.73;;;11.30;;
64795;SDS011;51229;51.980;6.722;2022-09-24T09:50:45;17.13;;;10.55;;
64795;SDS011;51229;51.980;6.722;2022-09-24T09:55:49;14.90;;;10.20;;
64795;SDS011;51229;51.980;6.722;2022-09-24T09:58:24;16.10;;;10.45;;
64795;SDS011;51229;51.980;6.722;2022-09-24T10:00:51;15.48;;;10.35;;
64795;SDS011;51229;51.980;6.722;2022-09-24T10:03:28;16.55;;;11.05;;
64795;SDS011;51229;51.980;6.722;2022-09-24T10:06:02;16.75;;;10.70;;
64795;SDS011;51229;51.980;6.722;2022-09-24T10:08:30;15.32;;;10.63;;
64795;SDS011;51229;51.980;6.722;2022-09-24T10:11:00;14.60;;;10.70;;
64795;SDS011;51229;51.980;6.722;2022-09-24T10:13:27;13.80;;;10.13;;
64795;SDS011;51229;51.980;6.722;2022-09-24T10:15:56;15.70;;;11.23;;
64795;SDS011;51229;51.980;6.722;2022-09-24T10:18:32;14.25;;;10.15;;
64795;SDS011;51229;51.980;6.722;2022-09-24T10:21:01;15.35;;;10.45;;
64795;SDS011;51229;51.980;6.722;2022-09-24T10:23:36;16.50;;;10.47;;
64795;SDS011;51229;51.980;6.722;2022-09-24T10:28:32;13.88;;;10.15;;
64795;SDS011;51229;51.980;6.722;2022-09-24T10:31:20;13.88;;;10.15;;
64795;SDS011;51229;51.980;6.722;2022-09-24T10:33:48;14.38;;;9.98;;
64795;SDS011;51229;51.980;6.722;2022-09-24T10:36:21;14.57;;;10.02;;
64795;SDS011;51229;51.980;6.722;2022-09-24T10:41:47;13.85;;;10.20;;
64795;SDS011;51229;51.980;6.722;2022-09-24T10:44:14;16.83;;;10.13;;
64795;SDS011;51229;51.980;6.722;2022-09-24T10:54:52;14.20;;;10.45;;
64795;SDS011;51229;51.980;6.722;2022-09-24T11:00:39;14.45;;;9.32;;
64795;SDS011;51229;51.980;6.722;2022-09-24T11:06:08;14.90;;;10.07;;
64795;SDS011;51229;51.980;6.722;2022-09-24T11:20:15;13.35;;;9.02;;
64795;SDS011;51229;51.980;6.722;2022-09-24T11:28:26;13.18;;;8.60;;
64795;SDS011;51229;51.980;6.722;2022-09-24T11:34:14;15.65;;;9.57;;
64795;SDS011;51229;51.980;6.722;2022-09-24T11:42:29;12.82;;;8.63;;
64795;SDS011;51229;51.980;6.722;2022-09-24T11:50:53;12.60;;;8.70;;
64795;SDS011;51229;51.980;6.722;2022-09-24T11:53:40;12.25;;;8.90;;
64795;SDS011;51229;51.980;6.722;2022-09-24T11:58:51;12.52;;;8.65;;
64795;SDS011;51229;51.980;6.722;2022-09-24T12:01:36;13.55;;;9.18;;
64795;SDS011;51229;51.980;6.722;2022-09-24T12:04:08;13.20;;;9.63;;
64795;SDS011;51229;51.980;6.722;2022-09-24T12:09:32;14.20;;;9.23;;
64795;SDS011;51229;51.980;6.722;2022-09-24T12:12:07;12.90;;;8.98;;
64795;SDS011;51229;51.980;6.722;2022-09-24T12:17:35;14.77;;;10.00;;
64795;SDS011;51229;51.980;6.722;2022-09-24T12:20:10;15.57;;;10.30;;
64795;SDS011;51229;51.980;6.722;2022-09-24T12:22:56;13.68;;;9.70;;
64795;SDS011;51229;51.980;6.722;2022-09-24T12:25:27;13.88;;;9.95;;
64795;SDS011;51229;51.980;6.722;2022-09-24T12:27:56;14.93;;;10.07;;
64795;SDS011;51229;51.980;6.722;2022-09-24T12:30:32;14.70;;;9.93;;
64795;SDS011;51229;51.980;6.722;2022-09-24T12:33:31;16.92;;;10.60;;
64795;SDS011;51229;51.980;6.722;2022-09-24T12:36:13;11.95;;;9.35;;
64795;SDS011;51229;51.980;6.722;2022-09-24T12:38:48;13.80;;;9.93;;
64795;SDS011;51229;51.980;6.722;2022-09-24T12:44:05;12.13;;;8.43;;
64795;SDS011;51229;51.980;6.722;2022-09-24T12:46:45;13.52;;;8.35;;
64795;SDS011;51229;51.980;6.722;2022-09-24T12:51:44;12.05;;;8.52;;
64795;SDS011;51229;51.980;6.722;2022-09-24T12:54:27;13.13;;;9.55;;
64795;SDS011;51229;51.980;6.722;2022-09-24T12:59:30;13.65;;;9.02;;
64795;SDS011;51229;51.980;6.722;2022-09-24T13:02:06;12.40;;;8.93;;
64795;SDS011;51229;51.980;6.722;2022-09-24T13:04:42;14.90;;;8.18;;
64795;SDS011;51229;51.980;6.722;2022-09-24T13:10:30;11.77;;;8.85;;
64795;SDS011;51229;51.980;6.722;2022-09-24T13:12:58;13.90;;;8.52;;
64795;SDS011;51229;51.980;6.722;2022-09-24T13:15:28;14.52;;;8.85;;
64795;SDS011;51229;51.980;6.722;2022-09-24T13:18:02;13.40;;;8.75;;
64795;SDS011;51229;51.980;6.722;2022-09-24T13:20:28;12.75;;;8.82;;
64795;SDS011;51229;51.980;6.722;2022-09-24T13:23:42;13.32;;;9.13;;
64795;SDS011;51229;51.980;6.722;2022-09-24T13:31:22;11.70;;;8.75;;
64795;SDS011;51229;51.980;6.722;2022-09-24T13:33:54;12.85;;;9.13;;
64795;SDS011;51229;51.980;6.722;2022-09-24T13:36:37;11.07;;;8.35;;
64795;SDS011;51229;51.980;6.722;2022-09-24T13:44:47;14.85;;;9.07;;
64795;SDS011;51229;51.980;6.722;2022-09-24T13:47:27;12.02;;;8.60;;
64795;SDS011;51229;51.980;6.722;2022-09-24T13:49:54;13.18;;;9.15;;
64795;SDS011;51229;51.980;6.722;2022-09-24T13:55:29;13.43;;;9.43;;
64795;SDS011;51229;51.980;6.722;2022-09-24T13:57:58;15.02;;;9.35;;
64795;SDS011;51229;51.980;6.722;2022-09-24T14:00:25;13.93;;;9.30;;
64795;SDS011;51229;51.980;6.722;2022-09-24T14:05:27;14.52;;;10.40;;
64795;SDS011;51229;51.980;6.722;2022-09-24T14:07:56;14.35;;;9.70;;
64795;SDS011;51229;51.980;6.722;2022-09-24T14:10:28;15.80;;;10.35;;
64795;SDS011;51229;51.980;6.722;2022-09-24T14:13:01;13.98;;;10.07;;
64795;SDS011;51229;51.980;6.722;2022-09-24T14:15:52;15.52;;;10.45;;
64795;SDS011;51229;51.980;6.722;2022-09-24T14:18:23;14.40;;;10.52;;
64795;SDS011;51229;51.980;6.722;2022-09-24T14:23:53;14.90;;;10.63;;
64795;SDS011;51229;51.980;6.722;2022-09-24T14:27:03;14.30;;;10.05;;
64795;SDS011;51229;51.980;6.722;2022-09-24T14:29:11;16.08;;;10.45;;
64795;SDS011;51229;51.980;6.722;2022-09-24T14:31:46;14.52;;;9.98;;
64795;SDS011;51229;51.980;6.722;2022-09-24T14:34:23;16.03;;;10.33;;
64795;SDS011;51229;51.980;6.722;2022-09-24T14:36:59;13.27;;;9.93;;
64795;SDS011;51229;51.980;6.722;2022-09-24T14:39:42;14.00;;;10.45;;
64795;SDS011;51229;51.980;6.722;2022-09-24T14:42:18;14.23;;;9.80;;
64795;SDS011;51229;51.980;6.722;2022-09-24T14:44:48;13.98;;;10.38;;
64795;SDS011;51229;51.980;6.722;2022-09-24T14:47:33;14.43;;;10.35;;
64795;SDS011;51229;51.980;6.722;2022-09-24T14:50:01;16.85;;;10.70;;
64795;SDS011;51229;51.980;6.722;2022-09-24T14:52:33;14.95;;;10.48;;
64795;SDS011;51229;51.980;6.722;2022-09-24T14:57:41;15.57;;;10.63;;
64795;SDS011;51229;51.980;6.722;2022-09-24T15:00:21;15.90;;;10.95;;
64795;SDS011;51229;51.980;6.722;2022-09-24T15:02:49;14.45;;;10.93;;
64795;SDS011;51229;51.980;6.722;2022-09-24T15:05:24;16.33;;;11.38;;
64795;SDS011;51229;51.980;6.722;2022-09-24T15:07:53;13.70;;;9.77;;
64795;SDS011;51229;51.980;6.722;2022-09-24T15:13:21;16.42;;;11.18;;
64795;SDS011;51229;51.980;6.722;2022-09-24T15:16:04;16.65;;;10.68;;
64795;SDS011;51229;51.980;6.722;2022-09-24T15:18:31;14.73;;;10.90;;
64795;SDS011;51229;51.980;6.722;2022-09-24T15:20:59;13.18;;;9.73;;
64795;SDS011;51229;51.980;6.722;2022-09-24T15:23:27;14.73;;;10.90;;
64795;SDS011;51229;51.980;6.722;2022-09-24T15:25:53;13.68;;;9.10;;
64795;SDS011;51229;51.980;6.722;2022-09-24T15:28:19;14.07;;;10.05;;
64795;SDS011;51229;51.980;6.722;2022-09-24T15:30:46;13.95;;;10.02;;
64795;SDS011;51229;51.980;6.722;2022-09-24T15:33:13;13.40;;;10.13;;
64795;SDS011;51229;51.980;6.722;2022-09-24T15:35:39;12.98;;;9.65;;
64795;SDS011;51229;51.980;6.722;2022-09-24T15:38:07;13.43;;;10.40;;
64795;SDS011;51229;51.980;6.722;2022-09-24T15:40:39;14.43;;;9.82;;
64795;SDS011;51229;51.980;6.722;2022-09-24T15:43:24;13.73;;;9.77;;
64795;SDS011;51229;51.980;6.722;2022-09-24T15:45:50;11.15;;;7.50;;
64795;SDS011;51229;51.980;6.722;2022-09-24T15:48:16;9.63;;;6.88;;
64795;SDS011;51229;51.980;6.722;2022-09-24T15:50:42;8.65;;;5.72;;
64795;SDS011;51229;51.980;6.722;2022-09-24T15:53:28;7.47;;;5.20;;
64795;SDS011;51229;51.980;6.722;2022-09-24T15:55:58;7.38;;;5.22;;
64795;SDS011;51229;51.980;6.722;2022-09-24T15:58:27;7.85;;;5.15;;
64795;SDS011;51229;51.980;6.722;2022-09-24T16:00:53;6.70;;;4.40;;
64795;SDS011;51229;51.980;6.722;2022-09-24T16:03:23;8.02;;;5.25;;
64795;SDS011;51229;51.980;6.722;2022-09-24T16:05:50;7.53;;;5.00;;
64795;SDS011;51229;51.980;6.722;2022-09-24T16:08:16;7.72;;;4.60;;
64795;SDS011;51229;51.980;6.722;2022-09-24T16:10:42;7.57;;;4.97;;
64795;SDS011;51229;51.980;6.722;2022-09-24T16:13:09;8.32;;;4.30;;
64795;SDS011;51229;51.980;6.722;2022-09-24T16:15:36;7.15;;;4.47;;
64795;SDS011;51229;51.980;6.722;2022-09-24T16:18:03;7.43;;;4.40;;
64795;SDS011;51229;51.980;6.722;2022-09-24T16:20:29;6.68;;;4.40;;
64795;SDS011;51229;51.980;6.722;2022-09-24T16:22:55;7.68;;;5.40;;
64795;SDS011;51229;51.980;6.722;2022-09-24T16:25:21;7.88;;;5.32;;
64795;SDS011;51229;51.980;6.722;2022-09-24T16:27:46;6.28;;;3.92;;
64795;SDS011;51229;51.980;6.722;2022-09-24T16:30:12;6.15;;;3.92;;
64795;SDS011;51229;51.980;6.722;2022-09-24T16:32:38;5.50;;;3.63;;
64795;SDS011;51229;51.980;6.722;2022-09-24T16:35:04;4.32;;;2.58;;
64795;SDS011;51229;51.980;6.722;2022-09-24T16:37:30;3.63;;;2.25;;
64795;SDS011;51229;51.980;6.722;2022-09-24T16:39:56;4.03;;;2.47;;
64795;SDS011;51229;51.980;6.722;2022-09-24T16:42:21;4.00;;;2.28;;
64795;SDS011;51229;51.980;6.722;2022-09-24T16:44:50;4.07;;;2.40;;
64795;SDS011;51229;51.980;6.722;2022-09-24T16:47:16;4.97;;;3.22;;
64795;SDS011;51229;51.980;6.722;2022-09-24T16:49:44;4.07;;;2.88;;
64795;SDS011;51229;51.980;6.722;2022-09-24T16:52:10;3.38;;;2.15;;
64795;SDS011;51229;51.980;6.722;2022-09-24T16:54:36;4.25;;;2.40;;
64795;SDS011;51229;51.980;6.722;2022-09-24T16:57:02;3.88;;;2.40;;
64795;SDS011;51229;51.980;6.722;2022-09-24T16:59:30;5.40;;;3.10;;